createdAt,value
2019-06-10T00:00:41.818Z,6.00
2019-06-10T00:03:11.772Z,8.93
2019-06-10T00:05:41.396Z,6.57
2019-06-10T00:08:12.022Z,6.53
2019-06-10T00:10:42.222Z,9.07
2019-06-10T00:13:12.020Z,6.03
2019-06-10T00:15:41.534Z,4.40
2019-06-10T00:18:34.161Z,6.53
2019-06-10T00:20:41.391Z,5.70
2019-06-10T00:23:12.048Z,5.73
2019-06-10T00:25:41.868Z,6.80
2019-06-10T00:28:11.925Z,6.80
2019-06-10T00:30:41.675Z,7.37
2019-06-10T00:33:12.535Z,5.50
2019-06-10T00:35:41.555Z,10.20
2019-06-10T00:38:13.730Z,6.23
2019-06-10T00:40:41.504Z,7.60
2019-06-10T00:43:13.047Z,7.73
2019-06-10T00:45:41.418Z,5.07
2019-06-10T00:48:20.229Z,6.23
2019-06-10T00:50:41.746Z,7.23
2019-06-10T00:53:14.096Z,6.57
2019-06-10T00:55:41.816Z,6.03
2019-06-10T00:58:13.913Z,11.30
2019-06-10T01:00:41.839Z,5.97
2019-06-10T01:03:14.617Z,5.90
2019-06-10T01:05:42.331Z,7.50
2019-06-10T01:08:13.982Z,10.03
2019-06-10T01:10:43.850Z,9.53
2019-06-10T01:13:15.357Z,5.80
2019-06-10T01:15:43.390Z,7.57
2019-06-10T01:18:28.695Z,8.00
2019-06-10T01:20:42.797Z,8.03
2019-06-10T01:23:13.503Z,10.07
2019-06-10T01:25:42.491Z,9.67
2019-06-10T01:28:14.544Z,9.37
2019-06-10T01:30:41.931Z,6.93
2019-06-10T01:33:12.734Z,10.57
2019-06-10T01:35:41.691Z,8.33
2019-06-10T01:38:13.530Z,8.57
2019-06-10T01:40:42.145Z,6.83
2019-06-10T01:43:13.972Z,5.83
2019-06-10T01:45:42.293Z,9.67
2019-06-10T01:48:14.922Z,8.20
2019-06-10T01:50:41.891Z,8.63
2019-06-10T01:53:13.826Z,7.60
2019-06-10T01:55:41.782Z,9.90
2019-06-10T01:58:14.361Z,8.03
2019-06-10T02:01:01.302Z,10.53
2019-06-10T02:03:31.423Z,9.40
2019-06-10T02:06:01.455Z,12.60
2019-06-10T02:08:31.683Z,9.70
2019-06-10T02:11:01.286Z,8.33
2019-06-10T02:13:32.933Z,9.87
2019-06-10T02:16:02.696Z,8.80
2019-06-10T02:18:32.079Z,12.30
2019-06-10T02:21:01.550Z,15.03
2019-06-10T02:23:31.348Z,14.80
2019-06-10T02:26:01.491Z,16.10
2019-06-10T02:28:31.706Z,10.93
2019-06-10T02:31:03.844Z,9.20
2019-06-10T02:33:36.067Z,10.03
2019-06-10T02:36:04.090Z,9.30
2019-06-10T02:38:38.663Z,9.47
2019-06-10T02:41:04.514Z,9.03
2019-06-10T02:43:37.419Z,9.30
2019-06-10T02:46:05.330Z,9.13
2019-06-10T02:48:35.316Z,10.07
2019-06-10T02:51:06.526Z,11.20
2019-06-10T02:53:36.997Z,8.33
2019-06-10T02:56:07.105Z,10.83
2019-06-10T02:58:38.911Z,11.07
2019-06-10T03:01:06.665Z,11.37
2019-06-10T03:03:43.695Z,13.67
2019-06-10T03:06:08.495Z,13.43
2019-06-10T03:08:36.930Z,14.43
2019-06-10T03:11:06.087Z,12.40
2019-06-10T03:13:34.922Z,11.87
2019-06-10T03:16:22.992Z,10.70
2019-06-10T03:18:52.585Z,11.77
2019-06-10T03:21:24.209Z,13.47
2019-06-10T03:23:53.112Z,17.83
2019-06-10T03:26:24.367Z,13.57
2019-06-10T03:28:52.485Z,16.97
2019-06-10T03:31:28.388Z,15.43
2019-06-10T03:33:54.262Z,13.47
2019-06-10T03:36:23.121Z,17.23
2019-06-10T03:38:53.727Z,16.97
2019-06-10T03:41:23.694Z,21.53
2019-06-10T03:43:53.180Z,24.37
2019-06-10T03:46:24.238Z,26.30
2019-06-10T03:48:52.697Z,22.63
2019-06-10T03:51:23.932Z,24.87
2019-06-10T03:53:53.050Z,24.47
2019-06-10T03:56:23.835Z,23.57
2019-06-10T03:58:52.205Z,29.13
2019-06-10T04:01:24.345Z,26.00
2019-06-10T04:03:52.963Z,29.57
2019-06-10T04:06:24.208Z,24.53
2019-06-10T04:08:52.436Z,24.50
2019-06-10T04:11:24.018Z,27.87
2019-06-10T04:13:53.549Z,25.13
2019-06-10T04:16:24.222Z,24.33
2019-06-10T04:18:53.457Z,26.77
2019-06-10T04:21:23.740Z,28.63
2019-06-10T04:23:52.906Z,25.90
2019-06-10T04:26:24.586Z,28.30
2019-06-10T04:28:53.008Z,23.83
2019-06-10T04:31:24.741Z,25.17
2019-06-10T04:33:52.409Z,28.93
2019-06-10T04:36:24.490Z,25.13
2019-06-10T04:38:52.493Z,29.70
2019-06-10T04:41:24.323Z,24.87
2019-06-10T04:43:53.154Z,25.60
2019-06-10T04:46:23.650Z,25.63
2019-06-10T04:48:53.274Z,25.87
2019-06-10T04:51:23.925Z,31.00
2019-06-10T04:53:52.693Z,25.13
2019-06-10T04:56:24.123Z,29.47
2019-06-10T04:58:52.618Z,27.90
2019-06-10T05:01:24.139Z,28.33
2019-06-10T05:03:52.712Z,28.13
2019-06-10T05:06:23.800Z,27.00
2019-06-10T05:08:53.812Z,27.63
2019-06-10T05:11:24.248Z,30.60
2019-06-10T05:13:53.263Z,29.10
2019-06-10T05:16:25.599Z,28.07
2019-06-10T05:18:54.906Z,29.27
2019-06-10T05:21:26.217Z,30.27
2019-06-10T05:23:53.414Z,27.27
2019-06-10T05:26:25.083Z,26.10
2019-06-10T05:28:52.588Z,28.40
2019-06-10T05:31:23.266Z,26.63
2019-06-10T05:33:53.021Z,27.17
2019-06-10T05:36:25.672Z,28.20
2019-06-10T05:38:52.707Z,27.37
2019-06-10T05:41:24.126Z,28.90
2019-06-10T05:43:52.320Z,24.77
2019-06-10T05:46:23.684Z,24.53
2019-06-10T05:48:52.583Z,26.50
2019-06-10T05:51:23.141Z,24.23
2019-06-10T05:53:52.844Z,26.97
2019-06-10T05:56:23.302Z,29.43
2019-06-10T05:58:52.599Z,25.20
2019-06-10T06:01:22.932Z,25.73
2019-06-10T06:03:52.925Z,27.33
2019-06-10T06:06:22.987Z,30.43
2019-06-10T06:08:53.400Z,26.23
2019-06-10T06:11:23.137Z,28.33
2019-06-10T06:13:52.297Z,27.53
2019-06-10T06:16:23.021Z,24.07
2019-06-10T06:18:52.639Z,27.67
2019-06-10T06:21:29.613Z,41.67
2019-06-10T06:23:52.843Z,29.47
2019-06-10T06:26:23.550Z,27.57
2019-06-10T06:28:53.464Z,23.50
2019-06-10T06:31:23.244Z,29.98
2019-06-10T06:33:52.671Z,22.55
2019-06-10T06:36:22.634Z,26.35
2019-06-10T06:38:53.170Z,21.68
2019-06-10T06:41:22.592Z,21.80
2019-06-10T06:43:53.013Z,21.75
2019-06-10T06:46:23.442Z,18.82
2019-06-10T06:48:53.320Z,19.55
2019-06-10T06:51:36.495Z,19.75
2019-06-10T06:53:56.114Z,18.50
2019-06-10T06:56:23.294Z,20.05
2019-06-10T06:58:52.550Z,18.02
2019-06-10T07:01:25.481Z,18.57
2019-06-10T07:03:53.602Z,20.57
2019-06-10T07:06:24.002Z,18.77
2019-06-10T07:09:04.106Z,19.82
2019-06-10T07:11:25.289Z,19.37
2019-06-10T07:13:56.288Z,17.52
2019-06-10T07:16:25.028Z,17.00
2019-06-10T07:18:54.098Z,17.75
2019-06-10T07:21:23.119Z,17.48
2019-06-10T07:23:52.827Z,16.12
2019-06-10T07:26:22.306Z,19.50
2019-06-10T07:28:53.781Z,21.65
2019-06-10T07:31:27.513Z,18.40
2019-06-10T07:33:52.677Z,18.27
2019-06-10T07:36:23.576Z,15.00
2019-06-10T07:38:53.864Z,18.90
2019-06-10T07:41:23.146Z,18.80
2019-06-10T07:43:52.783Z,20.52
2019-06-10T07:46:23.085Z,15.75
2019-06-10T07:48:56.174Z,19.17
2019-06-10T07:51:22.787Z,15.20
2019-06-10T07:53:52.502Z,19.25
2019-06-10T07:56:23.432Z,18.23
2019-06-10T07:58:52.730Z,15.65
2019-06-10T08:01:23.038Z,13.70
2019-06-10T08:03:52.716Z,16.17
2019-06-10T08:06:22.861Z,18.32
2019-06-10T08:08:53.245Z,22.90
2019-06-10T08:11:22.866Z,18.02
2019-06-10T08:13:53.882Z,14.93
2019-06-10T08:16:23.568Z,16.23
2019-06-10T08:19:20.391Z,14.68
2019-06-10T08:21:23.181Z,13.38
2019-06-10T08:23:54.376Z,15.28
2019-06-10T08:26:23.313Z,14.00
2019-06-10T08:28:53.081Z,15.23
2019-06-10T08:31:22.657Z,15.32
2019-06-10T08:33:53.369Z,13.65
2019-06-10T08:36:23.044Z,16.67
2019-06-10T08:38:52.699Z,15.43
2019-06-10T08:41:23.145Z,14.05
2019-06-10T08:43:52.906Z,13.45
2019-06-10T08:46:22.555Z,15.10
2019-06-10T08:48:52.536Z,14.40
2019-06-10T08:51:23.707Z,14.75
2019-06-10T08:53:53.246Z,17.57
2019-06-10T08:56:22.531Z,13.90
2019-06-10T08:58:53.852Z,17.98
2019-06-10T09:01:22.387Z,19.00
2019-06-10T09:03:53.727Z,12.88
2019-06-10T09:06:23.113Z,15.75
2019-06-10T09:08:54.452Z,16.40
2019-06-10T09:11:23.745Z,14.38
2019-06-10T09:13:53.345Z,11.70
2019-06-10T09:16:22.813Z,12.03
2019-06-10T09:18:54.917Z,12.40
2019-06-10T09:21:22.370Z,10.50
2019-06-10T09:23:58.671Z,11.80
2019-06-10T09:26:22.876Z,11.20
2019-06-10T09:28:55.785Z,14.18
2019-06-10T09:31:23.806Z,10.93
2019-06-10T09:33:56.643Z,13.75
2019-06-10T09:36:23.657Z,12.60
2019-06-10T09:38:54.990Z,13.30
2019-06-10T09:41:36.012Z,10.80
2019-06-10T09:43:57.028Z,13.18
2019-06-10T09:46:25.747Z,11.90
2019-06-10T09:48:56.680Z,11.48
2019-06-10T09:51:26.186Z,13.90
2019-06-10T09:54:03.146Z,16.07
2019-06-10T09:56:25.459Z,10.35
2019-06-10T09:58:55.393Z,13.83
2019-06-10T10:01:24.738Z,10.72
2019-06-10T10:03:59.705Z,10.75
2019-06-10T10:06:24.506Z,10.85
2019-06-10T10:08:58.047Z,10.20
2019-06-10T10:11:28.200Z,14.50
2019-06-10T10:13:54.581Z,13.75
2019-06-10T10:16:23.376Z,11.28
2019-06-10T10:18:59.349Z,11.33
2019-06-10T10:21:22.475Z,11.10
2019-06-10T10:24:06.523Z,11.63
2019-06-10T10:26:21.570Z,13.72
2019-06-10T10:28:52.117Z,14.63
2019-06-10T10:31:23.052Z,11.48
2019-06-10T10:33:51.032Z,11.33
2019-06-10T10:36:19.777Z,10.98
2019-06-10T10:38:50.810Z,13.72
2019-06-10T10:41:19.748Z,15.03
2019-06-10T10:43:51.157Z,16.30
2019-06-10T10:46:18.849Z,11.18
2019-06-10T10:48:48.940Z,11.48
2019-06-10T10:51:17.742Z,14.70
2019-06-10T10:53:50.549Z,11.60
2019-06-10T10:56:16.888Z,13.68
2019-06-10T10:58:47.234Z,11.75
2019-06-10T11:01:16.428Z,10.65
2019-06-10T11:03:47.585Z,12.10
2019-06-10T11:06:15.802Z,18.67
2019-06-10T11:08:46.583Z,11.30
2019-06-10T11:11:15.145Z,14.75
2019-06-10T11:13:45.608Z,12.07
2019-06-10T11:16:14.801Z,14.53
2019-06-10T11:18:43.473Z,16.73
2019-06-10T11:21:13.268Z,11.97
2019-06-10T11:23:43.521Z,12.70
2019-06-10T11:26:13.218Z,11.78
2019-06-10T11:28:43.099Z,12.47
2019-06-10T11:31:13.754Z,12.28
2019-06-10T11:33:43.740Z,12.63
2019-06-10T11:36:13.548Z,10.25
2019-06-10T11:38:42.518Z,11.12
2019-06-10T11:41:13.591Z,9.88
2019-06-10T11:43:43.026Z,9.55
2019-06-10T11:46:13.726Z,10.30
2019-06-10T11:48:43.533Z,12.00
2019-06-10T11:51:13.269Z,15.00
2019-06-10T11:53:44.043Z,9.78
2019-06-10T11:56:13.925Z,11.10
2019-06-10T11:58:43.614Z,12.70
2019-06-10T12:01:13.446Z,15.08
2019-06-10T12:03:43.331Z,12.45
2019-06-10T12:06:13.554Z,12.85
2019-06-10T12:08:43.739Z,16.37
2019-06-10T12:11:13.049Z,13.58
2019-06-10T12:13:42.749Z,10.35
2019-06-10T12:18:42.716Z,10.28
2019-06-10T12:21:13.023Z,10.18
2019-06-10T12:23:43.539Z,13.15
2019-06-10T12:26:12.657Z,12.20
2019-06-10T12:28:43.155Z,11.38
2019-06-10T12:31:13.501Z,12.40
2019-06-10T12:33:42.270Z,13.00
2019-06-10T12:36:12.896Z,10.50
2019-06-10T12:38:43.279Z,10.78
2019-06-10T12:41:14.044Z,15.45
2019-06-10T12:43:43.361Z,12.20
2019-06-10T12:46:12.931Z,10.13
2019-06-10T12:48:42.668Z,10.63
2019-06-10T12:51:13.479Z,13.53
2019-06-10T12:53:43.145Z,12.28
2019-06-10T12:56:14.945Z,12.13
2019-06-10T12:58:43.381Z,17.57
2019-06-10T13:01:12.694Z,11.50
2019-06-10T13:03:43.581Z,11.43
2019-06-10T13:06:13.078Z,12.47
2019-06-10T13:08:43.814Z,9.88
2019-06-10T13:11:15.041Z,14.15
2019-06-10T13:13:44.383Z,11.18
2019-06-10T13:16:14.451Z,13.95
2019-06-10T13:18:43.537Z,16.30
2019-06-10T13:21:16.860Z,12.40
2019-06-10T13:23:43.258Z,12.73
2019-06-10T13:26:16.378Z,13.53
2019-06-10T13:28:44.315Z,11.20
2019-06-10T13:31:13.991Z,18.50
2019-06-10T13:33:43.217Z,12.78
2019-06-10T13:36:12.940Z,12.10
2019-06-10T13:38:42.803Z,11.10
2019-06-10T13:41:11.859Z,15.60
2019-06-10T13:43:43.208Z,18.77
2019-06-10T13:46:11.114Z,11.63
2019-06-10T13:48:39.988Z,13.25
2019-06-10T13:51:12.286Z,10.75
2019-06-10T13:53:39.717Z,10.72
2019-06-10T13:56:32.018Z,9.95
2019-06-10T13:58:38.762Z,17.62
2019-06-10T14:01:12.990Z,13.08
2019-06-10T14:03:37.876Z,12.45
2019-06-10T14:06:24.906Z,13.43
2019-06-10T14:08:37.179Z,12.23
2019-06-10T14:11:07.654Z,13.15
2019-06-10T14:13:36.890Z,18.60
2019-06-10T14:16:05.697Z,12.47
2019-06-10T14:18:34.485Z,11.75
2019-06-10T14:21:07.345Z,14.25
2019-06-10T14:23:33.883Z,10.55
2019-06-10T14:26:04.490Z,15.98
2019-06-10T14:28:40.549Z,9.98
2019-06-10T14:31:15.061Z,19.02
2019-06-10T14:33:34.042Z,10.68
2019-06-10T14:36:04.984Z,11.33
2019-06-10T14:38:33.273Z,12.63
2019-06-10T14:41:03.438Z,10.38
2019-06-10T14:43:33.262Z,14.45
2019-06-10T14:46:02.620Z,10.78
2019-06-10T14:48:33.579Z,18.02
2019-06-10T14:51:03.381Z,11.63
2019-06-10T14:53:33.702Z,13.80
2019-06-10T14:56:03.784Z,10.80
2019-06-10T14:58:32.724Z,13.30
2019-06-10T15:01:04.783Z,9.83
2019-06-10T15:03:32.759Z,13.88
2019-06-10T15:06:03.146Z,9.55
2019-06-10T15:08:32.447Z,13.22
2019-06-10T15:11:01.247Z,9.30
2019-06-10T15:13:32.578Z,11.33
2019-06-10T15:16:04.470Z,15.48
2019-06-10T15:18:32.800Z,11.53
2019-06-10T15:21:02.673Z,14.07
2019-06-10T15:23:32.475Z,13.65
2019-06-10T15:26:02.875Z,15.68
2019-06-10T15:28:31.989Z,15.32
2019-06-10T15:31:02.999Z,13.55
2019-06-10T15:33:32.727Z,14.23
2019-06-10T15:36:02.414Z,9.53
2019-06-10T15:38:32.744Z,14.33
2019-06-10T15:41:01.697Z,9.50
2019-06-10T15:43:32.902Z,10.90
2019-06-10T15:46:03.171Z,15.85
2019-06-10T15:48:31.450Z,13.88
2019-06-10T15:51:02.858Z,12.37
2019-06-10T15:53:32.706Z,12.05
2019-06-10T15:56:29.986Z,15.18
2019-06-10T15:58:32.095Z,12.18
2019-06-10T16:01:02.866Z,12.28
2019-06-10T16:03:33.124Z,12.03
2019-06-10T16:06:03.085Z,14.18
2019-06-10T16:08:32.564Z,16.82
2019-06-10T16:11:03.029Z,12.47
2019-06-10T16:13:32.309Z,15.78
2019-06-10T16:16:03.445Z,13.15
2019-06-10T16:18:32.904Z,16.45
2019-06-10T16:21:04.403Z,13.70
2019-06-10T16:23:33.905Z,10.98
2019-06-10T16:26:02.945Z,19.73
2019-06-10T16:28:32.881Z,13.10
2019-06-10T16:31:02.891Z,11.57
2019-06-10T16:33:33.511Z,10.15
2019-06-10T16:36:02.984Z,12.33
2019-06-10T16:38:32.856Z,16.48
2019-06-10T16:41:03.457Z,15.70
2019-06-10T16:43:33.492Z,17.35
2019-06-10T16:46:03.254Z,10.38
2019-06-10T16:48:33.540Z,21.05
2019-06-10T16:51:03.244Z,14.00
2019-06-10T16:53:35.615Z,16.67
2019-06-10T16:56:03.463Z,10.48
2019-06-10T16:58:33.388Z,11.60
2019-06-10T17:01:04.098Z,18.87
2019-06-10T17:03:33.847Z,13.83
2019-06-10T17:06:03.141Z,17.65
2019-06-10T17:08:33.508Z,21.17
2019-06-10T17:11:03.291Z,21.40
2019-06-10T17:13:32.396Z,24.65
2019-06-10T17:16:03.397Z,23.20
2019-06-10T17:18:33.671Z,16.77
2019-06-10T17:21:03.246Z,14.75
2019-06-10T17:23:36.312Z,22.80
2019-06-10T17:26:03.225Z,18.27
2019-06-10T17:28:36.352Z,19.50
2019-06-10T17:31:03.787Z,13.90
2019-06-10T17:33:35.616Z,14.63
2019-06-10T17:36:03.721Z,16.30
2019-06-10T17:38:32.717Z,15.28
2019-06-10T17:41:02.992Z,11.75
2019-06-10T17:43:33.999Z,19.75
2019-06-10T17:46:12.319Z,20.05
2019-06-10T17:48:40.435Z,19.92
2019-06-10T17:51:09.302Z,12.43
2019-06-10T17:53:38.507Z,15.68
2019-06-10T17:56:07.266Z,13.48
2019-06-10T17:58:49.951Z,17.32
2019-06-10T18:01:12.839Z,18.92
2019-06-10T18:03:39.989Z,15.03
2019-06-10T18:06:09.140Z,11.95
2019-06-10T18:08:40.665Z,14.83
2019-06-10T18:11:08.114Z,22.55
2019-06-10T18:13:36.967Z,18.23
2019-06-10T18:16:05.772Z,19.70
2019-06-10T18:18:37.121Z,17.40
2019-06-10T18:21:04.885Z,29.27
2019-06-10T18:23:35.049Z,42.23
2019-06-10T18:26:04.063Z,30.92
2019-06-10T18:28:45.569Z,43.15
2019-06-10T18:31:03.342Z,40.33
2019-06-10T18:33:34.610Z,37.15
2019-06-10T18:36:02.450Z,28.60
2019-06-10T18:38:33.917Z,30.05
2019-06-10T18:41:03.216Z,36.40
2019-06-10T18:43:33.746Z,22.82
2019-06-10T18:46:03.442Z,21.93
2019-06-10T18:48:35.959Z,22.05
2019-06-10T18:51:03.007Z,54.63
2019-06-10T18:53:33.514Z,81.75
2019-06-10T18:56:02.109Z,89.35
2019-06-10T18:58:34.246Z,91.15
2019-06-10T19:01:07.107Z,134.75
2019-06-10T19:03:34.432Z,42.73
2019-06-10T19:06:02.807Z,30.45
2019-06-10T19:08:35.621Z,34.38
2019-06-10T19:11:02.562Z,34.92
2019-06-10T19:13:33.991Z,31.85
2019-06-10T19:16:03.164Z,33.20
2019-06-10T19:18:32.103Z,48.55
2019-06-10T19:21:03.597Z,25.55
2019-06-10T19:23:33.515Z,23.25
2019-06-10T19:26:03.010Z,21.87
2019-06-10T19:28:33.879Z,27.32
2019-06-10T19:31:04.950Z,31.15
2019-06-10T19:33:35.719Z,26.20
2019-06-10T19:36:04.214Z,31.55
2019-06-10T19:38:35.146Z,21.50
2019-06-10T19:41:03.574Z,20.20
2019-06-10T19:43:34.473Z,21.05
2019-06-10T19:46:04.698Z,17.50
2019-06-10T19:48:37.543Z,17.92
2019-06-10T19:51:03.605Z,17.17
2019-06-10T19:53:33.046Z,16.52
2019-06-10T19:56:02.796Z,23.62
2019-06-10T19:58:32.312Z,16.93
2019-06-10T20:01:01.308Z,17.87
2019-06-10T20:03:32.537Z,17.67
2019-06-10T20:06:02.870Z,16.37
2019-06-10T20:08:32.935Z,16.20
2019-06-10T20:11:03.467Z,16.42
2019-06-10T20:13:32.583Z,17.98
2019-06-10T20:16:03.021Z,21.05
2019-06-10T20:18:33.218Z,18.62
2019-06-10T20:21:02.767Z,19.23
2019-06-10T20:23:33.309Z,18.32
2019-06-10T20:26:02.098Z,17.40
2019-06-10T20:28:32.187Z,23.02
2019-06-10T20:31:01.157Z,17.15
2019-06-10T20:33:35.866Z,17.80
2019-06-10T20:36:06.353Z,24.20
2019-06-10T20:38:32.689Z,25.72
2019-06-10T20:41:02.668Z,19.92
2019-06-10T20:43:32.869Z,19.02
2019-06-10T20:46:05.346Z,18.55
2019-06-10T20:48:33.208Z,16.62
2019-06-10T20:51:03.062Z,20.82
2019-06-10T20:53:33.719Z,19.65
2019-06-10T20:56:03.746Z,16.48
2019-06-10T20:58:33.225Z,25.52
2019-06-10T21:01:04.663Z,19.52
2019-06-10T21:03:32.630Z,22.98
2019-06-10T21:06:03.412Z,15.43
2019-06-10T21:08:34.209Z,20.35
2019-06-10T21:11:03.268Z,17.60
2019-06-10T21:13:32.909Z,20.27
2019-06-10T21:16:03.534Z,15.95
2019-06-10T21:18:33.219Z,20.80
2019-06-10T21:21:02.792Z,18.52
2019-06-10T21:23:31.691Z,18.05
2019-06-10T21:26:02.910Z,18.42
2019-06-10T21:28:32.738Z,20.40
2019-06-10T21:31:02.889Z,15.80
2019-06-10T21:33:33.313Z,21.57
2019-06-10T21:36:03.961Z,18.55
2019-06-10T21:38:33.137Z,17.10
2019-06-10T21:41:03.358Z,17.52
2019-06-10T21:43:33.139Z,19.60
2019-06-10T21:46:03.723Z,19.95
2019-06-10T21:48:32.660Z,18.37
2019-06-10T21:51:01.408Z,21.80
2019-06-10T21:53:30.085Z,17.02
2019-06-10T21:55:58.866Z,19.45
2019-06-10T21:58:27.583Z,25.12
2019-06-10T22:01:11.663Z,17.48
2019-06-10T22:03:27.400Z,19.27
2019-06-10T22:05:55.973Z,18.57
2019-06-10T22:08:24.704Z,22.00
2019-06-10T22:10:56.166Z,17.57
2019-06-10T22:13:23.715Z,20.08
2019-06-10T22:15:54.884Z,23.00
2019-06-10T22:18:23.035Z,25.05
2019-06-10T22:20:56.019Z,19.92
2019-06-10T22:23:23.177Z,19.67
2019-06-10T22:25:55.635Z,20.17
2019-06-10T22:28:22.982Z,17.67
2019-06-10T22:30:55.643Z,20.92
2019-06-10T22:33:22.638Z,29.77
2019-06-10T22:35:55.403Z,20.45
2019-06-10T22:38:22.183Z,22.98
2019-06-10T22:40:53.660Z,18.77
2019-06-10T22:43:23.540Z,21.85
2019-06-10T22:45:53.798Z,18.12
2019-06-10T22:48:22.534Z,20.65
2019-06-10T22:50:51.395Z,19.70
2019-06-10T22:53:23.010Z,18.03
2019-06-10T22:55:52.762Z,20.27
2019-06-10T22:58:23.726Z,19.07
2019-06-10T23:00:53.252Z,19.63
2019-06-10T23:03:21.992Z,19.87
2019-06-10T23:05:50.755Z,24.07
2019-06-10T23:08:19.492Z,22.83
2019-06-10T23:10:48.593Z,21.87
2019-06-10T23:13:17.337Z,22.27
2019-06-10T23:15:46.016Z,23.47
2019-06-10T23:18:14.665Z,24.23
2019-06-10T23:20:43.371Z,25.93
2019-06-10T23:23:12.811Z,22.77
2019-06-10T23:25:42.975Z,24.47
2019-06-10T23:28:12.941Z,24.47
2019-06-10T23:30:42.780Z,22.67
2019-06-10T23:33:12.566Z,20.00
2019-06-10T23:35:42.904Z,20.03
2019-06-10T23:38:13.183Z,23.53
2019-06-10T23:40:43.052Z,29.10
2019-06-10T23:43:13.288Z,20.37
2019-06-10T23:45:42.435Z,23.30
2019-06-10T23:48:13.373Z,22.03
2019-06-10T23:50:43.792Z,24.77
2019-06-10T23:53:13.152Z,20.83
2019-06-10T23:55:42.780Z,22.17
2019-06-10T23:58:12.989Z,21.40
